Latest Weather Observations for Proserpine

IDQ60801

Issued at 3:02 pm EST Monday 6 July 2015 (issued every 30 minutes, with the page automatically refreshed every 10 minutes)

About weather observations | Map of weather stations | Latest weather observations for QLD | Other Formats
Station Details ID: 033247 Name: PROSERPINE AIRPORT Lat: -20.49 Lon: 148.56 Height: 19.7 m
Data from the previous 72 hours. | See also: Recent months at Proserpine
Date/Time
EST
Temp
°C
App
Temp
°C
Dew
Point
Rel
Hum
%
Delta-T
°C
Wind Press
QNH
hPa
Press
MSL
hPa
Rain
since 9 am
mm
Dir
 
Spd
km/h
Gust
km/h
Spd
kts
Gust
kts
06/03:00pm 23.7 21.2 13.6 53 5.9 E 19 24 10 13 1015.9 - -
06/02:30pm 23.8 21.4 13.9 54 5.8 E 19 30 10 16 1016.1 1016.1 0.0
06/02:00pm 24.3 21.5 13.2 50 6.4 E 20 28 11 15 1016.3 1016.3 0.0
06/01:30pm 24.4 21.8 13.9 52 6.2 E 20 28 11 15 1016.6 1016.6 0.0
06/01:00pm 24.2 21.8 13.7 52 6.1 E 19 26 10 14 1017.0 1017.0 0.0
06/12:30pm 23.5 21.4 14.8 58 5.2 ESE 19 28 10 15 1017.5 1017.5 0.0
06/12:00pm 23.5 21.0 14.2 56 5.5 ESE 20 28 11 15 1018.3 1018.2 0.0
06/11:30am 23.0 20.9 14.8 60 4.9 ESE 19 24 10 13 1018.7 1018.6 0.0
06/11:00am 23.7 22.1 16.5 64 4.4 ESE 20 26 11 14 1018.9 1018.8 0.0
06/10:30am 22.8 20.6 14.9 61 4.7 ESE 20 28 11 15 1019.0 1018.9 0.0
06/10:00am 23.4 22.0 16.9 67 4.0 ESE 20 26 11 14 1019.3 1019.2 0.0
06/09:00am 20.0 20.5 16.6 81 2.0 SSE 9 11 5 6 1019.5 1019.4 0.0
06/08:30am 17.4 18.7 16.1 92 0.8 SSW 4 6 2 3 1019.3 1019.2 0.0
06/08:00am 15.9 17.7 15.6 98 0.2 CALM 0 0 0 0 1019.1 1019.0 0.0
06/07:30am 14.2 15.4 13.9 98 0.2 CALM 0 0 0 0 1018.9 1018.8 0.0
06/07:00am 13.6 12.9 13.3 98 0.2 SSW 9 13 5 7 1018.7 1018.6 0.0
06/06:30am 13.5 12.8 13.2 98 0.2 SSW 9 13 5 7 1018.4 1018.3 0.0
06/06:00am 12.7 12.2 12.2 97 0.3 SW 6 9 3 5 1018.2 1018.1 0.0
06/05:30am 12.8 13.1 12.3 97 0.3 WNW 2 7 1 4 1018.2 1018.1 0.0
06/05:00am 13.2 14.0 12.7 97 0.3 CALM 0 2 0 1 1018.2 1018.1 0.0
06/04:30am 14.1 13.6 13.8 98 0.2 S 9 11 5 6 1018.2 1018.1 0.0
06/04:00am 13.4 12.9 12.8 96 0.3 SSW 7 9 4 5 1018.4 1018.3 0.0
06/03:30am 13.5 14.1 13.0 97 0.3 WSW 2 7 1 4 1018.4 1018.3 0.0
06/03:00am 13.4 13.5 12.8 96 0.3 W 4 6 2 3 1018.5 1018.4 0.0
06/02:30am 13.5 14.3 12.6 94 0.5 CALM 0 6 0 3 1018.5 1018.4 0.0
06/02:00am 14.6 14.4 13.6 94 0.6 SSW 7 9 4 5 1018.6 1018.5 0.0
06/01:30am 14.9 16.1 13.9 94 0.6 CALM 0 0 0 0 1018.9 1018.8 0.0
06/01:00am 15.1 14.7 14.0 93 0.6 SSW 9 11 5 6 1019.2 1019.1 0.0
06/12:30am 15.2 14.7 13.9 92 0.7 SW 9 9 5 5 1019.5 1019.4 0.0
06/12:00am 15.5 16.4 14.0 91 0.8 SW 2 6 1 3 1019.5 1019.4 0.0
 
Date/Time
EST
Temp
°C
App
Temp
°C
Dew
Point
Rel
Hum
%
Delta-T
°C
Wind Press
QNH
hPa
Press
MSL
hPa
Rain
since 9 am
mm
Dir
 
Spd
km/h
Gust
km/h
Spd
kts
Gust
kts
05/11:30pm 16.0 16.1 14.5 91 0.9 SW 7 9 4 5 1019.7 1019.6 0.0
05/11:00pm 16.1 16.4 14.5 90 0.9 SSW 6 7 3 4 1019.9 1019.8 0.0
05/10:30pm 16.4 16.2 14.8 90 0.9 SSW 9 11 5 6 1020.0 1019.9 0.0
05/10:00pm 16.7 16.7 15.1 90 0.9 SSW 9 11 5 6 1020.0 1019.9 0.0
05/09:51pm 16.7 16.3 15.1 90 0.9 SW 11 11 6 6 1019.9 1019.8 0.0
05/09:30pm 17.0 16.6 15.2 89 1.0 SSW 11 13 6 7 1019.9 1019.8 0.0
05/09:00pm 17.1 17.0 16.0 93 0.6 SSW 11 11 6 6 1019.9 1019.8 0.0
05/08:54pm 16.9 17.1 15.8 93 0.6 SSW 9 11 5 6 1019.9 1019.8 0.0
05/08:30pm 16.6 16.2 15.3 92 0.8 SW 11 13 6 7 1019.7 1019.6 0.0
05/08:00pm 17.7 18.1 16.4 92 0.8 SSE 9 13 5 7 1019.6 1019.5 0.0
05/07:00pm 18.2 18.3 16.4 89 1.1 SE 11 13 6 7 1019.1 1019.0 0.0
05/06:30pm 19.2 19.6 17.2 88 1.2 ESE 11 17 6 9 1018.8 1018.7 0.0
05/06:00pm 19.4 19.4 17.2 87 1.3 ESE 13 17 7 9 1018.5 1018.4 0.0
05/05:30pm 19.6 19.2 17.2 86 1.5 ESE 15 22 8 12 1018.4 1018.3 0.0
05/05:00pm 20.6 19.7 15.8 74 2.9 E 15 24 8 13 1018.2 1018.1 0.0
05/04:30pm 21.0 19.1 15.3 70 3.4 ESE 19 28 10 15 1018.1 1018.0 0.0
05/04:00pm 22.2 19.8 15.3 65 4.1 E 22 32 12 17 1018.0 1017.9 0.0
05/03:30pm 22.3 19.8 15.2 64 4.2 ESE 22 35 12 19 1018.1 1018.0 0.0
05/03:00pm 22.0 19.3 15.6 67 3.8 ESE 24 37 13 20 1018.1 1018.0 0.0
05/02:30pm 22.1 19.4 15.7 67 3.8 ESE 24 32 13 17 1018.3 1018.2 0.0
05/02:00pm 22.7 20.5 15.0 61 4.6 ESE 20 32 11 17 1018.3 1018.2 0.0
05/01:30pm 22.1 20.3 15.9 68 3.7 E 20 28 11 15 1018.6 1018.5 0.0
05/01:00pm 22.1 18.9 16.4 70 3.5 ESE 28 37 15 20 1019.0 1018.9 0.0
05/12:30pm 23.1 19.9 15.4 62 4.6 ESE 26 37 14 20 1019.1 1019.0 0.0
05/12:00pm 24.1 21.9 15.9 60 5.0 ESE 22 32 12 17 1019.6 1019.5 0.0
05/11:30am 23.1 20.6 15.2 61 4.7 ESE 22 32 12 17 1020.1 1020.0 0.0
05/11:00am 23.6 21.1 16.1 62 4.5 ESE 24 32 13 17 1020.3 1020.2 0.0
05/10:30am 22.1 19.2 15.2 65 4.1 ESE 24 32 13 17 1020.6 1020.5 0.0
05/10:00am 22.2 19.8 15.5 66 4.0 ESE 22 30 12 16 1020.6 1020.5 0.0
05/09:30am 21.9 20.2 16.2 70 3.4 SE 20 30 11 16 1020.6 1020.5 0.0
05/09:00am 20.0 19.5 15.8 77 2.5 SSE 13 17 7 9 1020.5 1020.4 0.0
05/08:30am 16.9 18.6 15.1 89 1.0 CALM 0 6 0 3 1020.4 1020.3 0.0
05/08:00am 15.6 15.0 14.5 93 0.6 SSW 11 15 6 8 1020.2 1020.1 0.0
05/07:30am 14.1 13.5 13.5 96 0.3 SSW 9 11 5 6 1020.0 1019.9 0.0
05/07:00am 12.8 11.8 12.2 96 0.3 SSW 9 11 5 6 1019.6 1019.5 0.0
05/06:30am 13.1 11.4 12.6 97 0.3 SSW 13 15 7 8 1019.5 1019.4 0.0
05/06:00am 12.6 10.9 12.3 98 0.2 SSW 13 15 7 8 1019.3 1019.2 0.0
05/05:30am 12.3 12.8 11.7 96 0.3 CALM 0 0 0 0 1018.5 1018.4 0.0
05/05:00am 12.4 11.6 11.6 95 0.4 SSW 7 9 4 5 1018.6 1018.5 0.0
05/04:30am 13.1 13.8 12.3 95 0.4 CALM 0 0 0 0 1018.6 1018.5 0.0
05/04:00am 13.2 11.9 12.4 95 0.4 SSW 11 13 6 7 1018.6 1018.5 0.0
05/03:30am 13.6 13.4 13.0 96 0.3 SSW 6 7 3 4 1018.8 1018.7 0.0
05/03:00am 13.6 12.9 13.3 98 0.2 SW 9 11 5 6 1018.8 1018.7 0.0
05/02:30am 12.8 12.3 12.5 98 0.2 SW 7 9 4 5 1018.9 1018.8 0.0
05/02:00am 11.2 9.7 10.4 95 0.4 SW 9 9 5 5 1019.2 1019.1 0.0
05/01:30am 11.3 11.5 10.5 95 0.4 CALM 0 0 0 0 1019.5 1019.4 0.0
05/01:00am 11.7 10.7 10.9 95 0.4 SSW 7 11 4 6 1019.5 1019.4 0.0
05/12:30am 11.7 10.9 11.1 96 0.3 SW 6 7 3 4 1019.7 1019.6 0.0
05/12:00am 11.4 11.6 10.5 94 0.5 CALM 0 2 0 1 1020.0 1019.9 0.0
 
Date/Time
EST
Temp
°C
App
Temp
°C
Dew
Point
Rel
Hum
%
Delta-T
°C
Wind Press
QNH
hPa
Press
MSL
hPa
Rain
since 9 am
mm
Dir
 
Spd
km/h
Gust
km/h
Spd
kts
Gust
kts
04/11:30pm 11.8 12.1 11.0 95 0.4 CALM 0 0 0 0 1020.2 1020.1 0.0
04/11:00pm 11.6 11.8 10.7 94 0.5 CALM 0 0 0 0 1020.3 1020.2 0.0
04/10:30pm 12.2 12.6 11.4 95 0.4 CALM 0 0 0 0 1020.3 1020.2 0.0
04/10:00pm 12.1 12.4 11.0 93 0.6 CALM 0 0 0 0 1020.3 1020.2 0.0
04/09:30pm 12.8 13.3 11.7 93 0.6 CALM 0 0 0 0 1020.4 1020.3 0.0
04/09:00pm 13.4 13.6 12.0 91 0.7 S 2 7 1 4 1020.4 1020.3 0.0
04/08:30pm 14.2 15.1 12.9 92 0.7 CALM 0 0 0 0 1020.2 1020.1 0.0
04/08:00pm 14.4 13.9 12.8 90 0.9 WSW 7 9 4 5 1020.0 1019.9 0.0
04/07:30pm 16.6 16.8 14.8 89 1.0 SE 7 9 4 5 1019.7 1019.6 0.0
04/07:00pm 16.9 16.8 14.9 88 1.2 ESE 9 11 5 6 1019.5 1019.4 0.0
04/06:30pm 17.2 17.4 14.8 86 1.4 SE 7 9 4 5 1019.2 1019.1 0.0
04/06:00pm 18.4 18.5 15.5 83 1.7 ESE 9 15 5 8 1018.9 1018.8 0.0
04/05:30pm 19.4 18.4 15.5 78 2.3 ESE 15 20 8 11 1018.5 1018.4 0.0
04/05:00pm 20.2 18.3 15.2 73 2.9 ESE 19 24 10 13 1018.3 1018.2 0.0
04/04:30pm 20.8 18.0 15.4 71 3.2 ESE 24 32 13 17 1018.1 1018.0 0.0
04/04:00pm 21.7 19.1 14.8 65 4.1 ESE 22 32 12 17 1018.0 1017.9 0.0
04/03:30pm 22.5 20.2 14.6 61 4.7 E 20 30 11 16 1018.0 1017.9 0.0
04/03:00pm 22.4 19.2 14.3 60 4.7 ESE 24 32 13 17 1018.0 1017.9 0.0
04/02:30pm 23.1 20.1 14.9 60 4.9 ESE 24 30 13 16 1018.2 1018.1 0.0
04/02:00pm 23.0 20.6 14.3 58 5.1 ESE 20 28 11 15 1018.3 1018.2 0.0
04/01:30pm 22.6 18.1 13.9 58 5.1 SE 30 39 16 21 1018.4 1018.3 0.0
04/01:00pm 22.7 18.7 14.0 58 5.1 ESE 28 35 15 19 1018.8 1018.7 0.0
04/12:30pm 22.8 19.3 14.4 59 4.9 ESE 26 37 14 20 1019.4 1019.3 0.0
04/12:00pm 22.0 17.8 13.4 58 4.9 SE 28 35 15 19 1019.9 1019.8 0.0
04/11:30am 21.8 19.2 13.7 60 4.7 ESE 20 33 11 18 1020.5 1020.4 0.0
04/11:00am 21.1 18.4 13.5 62 4.4 ESE 20 30 11 16 1020.6 1020.5 0.0
04/10:30am 20.3 17.1 13.0 63 4.1 ESE 22 28 12 15 1020.7 1020.6 0.0
04/10:00am 19.6 19.3 13.3 67 3.6 SSW 7 13 4 7 1020.6 1020.5 0.0
04/09:30am 18.2 17.5 13.3 73 2.8 SE 9 13 5 7 1020.8 1020.7 0.0
04/09:00am 16.2 17.2 13.1 82 1.7 CALM 0 0 0 0 1020.6 1020.5 0.0
04/08:30am 13.4 13.8 11.3 87 1.1 CALM 0 4 0 2 1020.4 1020.3 0.0
04/08:00am 12.1 11.8 10.0 87 1.1 W 2 6 1 3 1020.0 1019.9 0.0
04/07:30am 10.5 10.4 9.4 93 0.5 CALM 0 0 0 0 1019.6 1019.5 0.0
04/07:00am 9.4 7.8 8.2 92 0.6 S 6 11 3 6 1019.4 1019.3 0.0
04/06:30am 8.8 6.2 7.9 94 0.4 SW 11 15 6 8 1019.1 1019.0 0.0
04/06:00am 8.2 6.3 7.4 95 0.4 SSW 7 9 4 5 1019.1 1019.0 0.0
04/05:30am 8.2 6.2 7.1 93 0.5 SW 7 9 4 5 1019.1 1019.0 0.0
04/05:00am 9.5 8.7 8.3 92 0.6 ENE 2 7 1 4 1019.2 1019.1 0.0
04/04:30am 9.2 7.6 7.8 91 0.7 SSW 6 7 3 4 1019.1 1019.0 0.0
04/04:00am 9.7 7.9 8.1 90 0.8 SW 7 9 4 5 1018.9 1018.8 0.0
04/03:30am 10.4 7.7 8.8 90 0.8 SSW 13 17 7 9 1019.1 1019.0 0.0
04/03:00am 10.9 8.0 9.5 91 0.7 S 15 17 8 9 1019.1 1019.0 0.0
04/02:30am 10.1 8.2 9.0 93 0.5 SW 9 11 5 6 1019.8 1019.7 0.0
04/02:00am 10.3 8.7 8.9 91 0.7 WSW 7 9 4 5 1020.1 1020.0 0.0
04/01:30am 11.0 9.2 9.6 91 0.7 SW 9 11 5 6 1020.5 1020.4 0.0
04/01:00am 10.7 8.6 9.6 93 0.6 SW 11 13 6 7 1020.8 1020.7 0.0
04/12:30am 10.6 8.5 9.7 94 0.5 SW 11 13 6 7 1021.0 1020.9 0.0
04/12:00am 10.6 8.4 9.5 93 0.5 SSW 11 13 6 7 1021.3 1021.2 0.0
 
Date/Time
EST
Temp
°C
App
Temp
°C
Dew
Point
Rel
Hum
%
Delta-T
°C
Wind Press
QNH
hPa
Press
MSL
hPa
Rain
since 9 am
mm
Dir
 
Spd
km/h
Gust
km/h
Spd
kts
Gust
kts
03/11:30pm 10.8 8.7 9.7 93 0.6 SSW 11 11 6 6 1021.4 1021.3 0.0
03/11:00pm 11.2 9.5 9.8 91 0.7 SSW 9 11 5 6 1021.4 1021.3 0.0
03/10:30pm 12.0 10.0 10.1 88 1.0 SSW 11 13 6 7 1021.3 1021.2 0.0
03/10:00pm 12.8 10.4 11.4 91 0.7 S 15 17 8 9 1021.3 1021.2 0.0
03/09:30pm 11.9 10.0 10.6 92 0.7 S 11 13 6 7 1021.2 1021.1 0.0
03/09:00pm 11.6 9.6 10.3 92 0.7 SSW 11 13 6 7 1020.9 1020.8 0.0
03/08:30pm 11.9 12.0 10.1 89 0.9 CALM 0 6 0 3 1020.7 1020.6 0.0
03/08:00pm 12.5 12.7 10.4 87 1.1 CALM 0 0 0 0 1020.4 1020.3 0.0
03/07:30pm 13.5 14.0 11.6 88 1.0 CALM 0 2 0 1 1020.3 1020.2 0.0
03/07:00pm 13.2 12.4 10.9 86 1.2 W 6 7 3 4 1020.0 1019.9 0.0
03/06:30pm 14.7 15.1 11.3 80 1.8 CALM 0 6 0 3 1019.6 1019.5 0.0
03/06:00pm 16.4 15.6 11.8 74 2.5 SSE 7 9 4 5 1019.2 1019.1 0.0
03/05:30pm 17.2 15.2 11.5 69 3.1 E 13 17 7 9 1019.1 1019.0 0.0
03/05:00pm 18.5 15.5 10.8 61 4.2 E 17 22 9 12 1018.6 1018.5 0.0
03/04:30pm 19.3 16.1 10.0 55 5.0 E 17 22 9 12 1018.4 1018.3 0.0
03/04:00pm 20.2 16.3 8.8 48 6.0 E 19 26 10 14 1018.2 1018.1 0.0
03/03:30pm 20.6 16.8 7.6 43 6.7 ESE 17 24 9 13 1018.0 1017.9 0.0

Other Formats:

Comma delimited format used in spreadsheet applications
http://www.bom.gov.au/fwo/IDQ60801/IDQ60801.94365.axf

JavaScript Object Notation format (JSON) in row-major order
http://www.bom.gov.au/fwo/IDQ60801/IDQ60801.94365.json